Terminal Aerodrome Forecast
Issued by NWS

Home | Current Version | Previous Version | Text Only | Print | Product List | Glossary On
Versions: 1 2 3 4 5 6 7 8 9 10 11 12 13 14 15 16 17 18 19 20 21 22 23
000
FTUS43 KABR 291500 AAA
TAFPIR
TAF AMD
KPIR 291504Z 2915/3012 08013KT P6SM OVC012
     FM291800 10013KT P6SM OVC025
     FM300000 10015KT P6SM VCTS OVC020CB
     FM300600 10023KT P6SM -SHRA OVC007=

USA.gov is the U.S. government's official web portal to all federal, state and local government web resources and services.